Terminal Aerodrome Forecast
Issued by NWS Charleston, WV

Current Version | Previous Version | Text Only | Print | Product List | Glossary Off
Versions: 1 2 3 4 5 6 7 8 9 10 11 12 13 14 15 16 17 18 19 20 21 22 23

000
FTUS41 KRLX 241100
TAFBKW
TAF
KBKW 241124Z 2412/2512 12006KT P6SM BKN012
     FM241300 13008KT P6SM BKN015
     FM241700 13008KT P6SM SCT025
      TEMPO 2417/2419 BKN025
     FM250600 13007KT P6SM SCT015=

USA.gov is the U.S. government's official web portal to all federal, state and local government web resources and services.